sensor_id;sensor_type;location;lat;lon;timestamp;P1;durP1;ratioP1;P2;durP2;ratioP2
67074;SDS011;53990;50.334;18.640;2022-11-15T00:01:15;103.60;;;36.10;;
67074;SDS011;53990;50.334;18.640;2022-11-15T00:03:43;80.20;;;35.50;;
67074;SDS011;53990;50.334;18.640;2022-11-15T00:06:11;90.20;;;37.20;;
67074;SDS011;53990;50.334;18.640;2022-11-15T00:08:39;114.40;;;36.40;;
67074;SDS011;53990;50.334;18.640;2022-11-15T00:11:10;124.60;;;37.20;;
67074;SDS011;53990;50.334;18.640;2022-11-15T00:13:37;103.90;;;35.20;;
67074;SDS011;53990;50.334;18.640;2022-11-15T00:16:05;98.00;;;34.90;;
67074;SDS011;53990;50.334;18.640;2022-11-15T00:18:33;111.10;;;36.30;;
67074;SDS011;53990;50.334;18.640;2022-11-15T00:21:09;84.50;;;36.40;;
67074;SDS011;53990;50.334;18.640;2022-11-15T00:23:36;86.20;;;36.60;;
67074;SDS011;53990;50.334;18.640;2022-11-15T00:26:04;93.90;;;33.60;;
67074;SDS011;53990;50.334;18.640;2022-11-15T00:28:31;96.40;;;35.00;;
67074;SDS011;53990;50.334;18.640;2022-11-15T00:31:01;80.90;;;35.30;;
67074;SDS011;53990;50.334;18.640;2022-11-15T00:33:29;83.00;;;34.60;;
67074;SDS011;53990;50.334;18.640;2022-11-15T00:36:05;109.70;;;35.40;;
67074;SDS011;53990;50.334;18.640;2022-11-15T00:41:02;108.80;;;35.40;;
67074;SDS011;53990;50.334;18.640;2022-11-15T00:43:30;79.40;;;33.10;;
67074;SDS011;53990;50.334;18.640;2022-11-15T00:45:57;79.80;;;32.00;;
67074;SDS011;53990;50.334;18.640;2022-11-15T00:48:24;76.70;;;32.20;;
67074;SDS011;53990;50.334;18.640;2022-11-15T00:50:51;88.80;;;32.30;;
67074;SDS011;53990;50.334;18.640;2022-11-15T00:53:19;68.10;;;31.10;;
67074;SDS011;53990;50.334;18.640;2022-11-15T00:55:46;88.40;;;29.90;;
67074;SDS011;53990;50.334;18.640;2022-11-15T00:58:13;67.50;;;30.90;;
67074;SDS011;53990;50.334;18.640;2022-11-15T01:00:40;100.50;;;31.70;;
67074;SDS011;53990;50.334;18.640;2022-11-15T01:03:07;93.50;;;31.70;;
67074;SDS011;53990;50.334;18.640;2022-11-15T01:05:37;86.10;;;30.10;;
67074;SDS011;53990;50.334;18.640;2022-11-15T01:08:04;76.50;;;31.50;;
67074;SDS011;53990;50.334;18.640;2022-11-15T01:10:32;85.00;;;31.40;;
67074;SDS011;53990;50.334;18.640;2022-11-15T01:12:59;77.10;;;29.40;;
67074;SDS011;53990;50.334;18.640;2022-11-15T01:15:26;77.80;;;30.20;;
67074;SDS011;53990;50.334;18.640;2022-11-15T01:17:53;76.10;;;25.80;;
67074;SDS011;53990;50.334;18.640;2022-11-15T01:20:21;66.70;;;29.40;;
67074;SDS011;53990;50.334;18.640;2022-11-15T01:22:49;64.00;;;28.30;;
67074;SDS011;53990;50.334;18.640;2022-11-15T01:25:16;69.30;;;27.60;;
67074;SDS011;53990;50.334;18.640;2022-11-15T01:27:43;56.30;;;27.20;;
67074;SDS011;53990;50.334;18.640;2022-11-15T01:30:10;56.30;;;26.30;;
67074;SDS011;53990;50.334;18.640;2022-11-15T01:32:38;64.30;;;28.00;;
67074;SDS011;53990;50.334;18.640;2022-11-15T01:35:05;69.20;;;28.90;;
67074;SDS011;53990;50.334;18.640;2022-11-15T01:37:32;67.10;;;29.20;;
67074;SDS011;53990;50.334;18.640;2022-11-15T01:40:00;62.30;;;28.20;;
67074;SDS011;53990;50.334;18.640;2022-11-15T01:42:27;71.60;;;28.30;;
67074;SDS011;53990;50.334;18.640;2022-11-15T01:44:54;65.20;;;26.80;;
67074;SDS011;53990;50.334;18.640;2022-11-15T01:47:25;73.50;;;28.10;;
67074;SDS011;53990;50.334;18.640;2022-11-15T01:50:02;67.30;;;29.60;;
67074;SDS011;53990;50.334;18.640;2022-11-15T01:52:33;57.20;;;26.40;;
67074;SDS011;53990;50.334;18.640;2022-11-15T01:55:17;54.60;;;29.20;;
67074;SDS011;53990;50.334;18.640;2022-11-15T01:57:47;60.10;;;27.70;;
67074;SDS011;53990;50.334;18.640;2022-11-15T02:00:15;59.50;;;26.70;;
67074;SDS011;53990;50.334;18.640;2022-11-15T02:02:42;59.30;;;27.00;;
67074;SDS011;53990;50.334;18.640;2022-11-15T02:05:10;54.40;;;28.00;;
67074;SDS011;53990;50.334;18.640;2022-11-15T02:07:37;64.40;;;28.30;;
67074;SDS011;53990;50.334;18.640;2022-11-15T02:10:16;79.30;;;28.80;;
67074;SDS011;53990;50.334;18.640;2022-11-15T02:12:45;66.40;;;29.90;;
67074;SDS011;53990;50.334;18.640;2022-11-15T02:15:13;60.80;;;29.00;;
67074;SDS011;53990;50.334;18.640;2022-11-15T02:34:07;60.70;;;28.70;;
67074;SDS011;53990;50.334;18.640;2022-11-15T02:39:29;63.50;;;27.80;;
67074;SDS011;53990;50.334;18.640;2022-11-15T02:42:02;59.90;;;29.30;;
67074;SDS011;53990;50.334;18.640;2022-11-15T02:44:35;57.90;;;30.00;;
67074;SDS011;53990;50.334;18.640;2022-11-15T02:47:06;67.50;;;31.50;;
67074;SDS011;53990;50.334;18.640;2022-11-15T02:49:47;71.10;;;32.00;;
67074;SDS011;53990;50.334;18.640;2022-11-15T02:52:16;67.60;;;30.80;;
67074;SDS011;53990;50.334;18.640;2022-11-15T02:54:59;72.30;;;32.10;;
67074;SDS011;53990;50.334;18.640;2022-11-15T02:57:43;75.60;;;34.70;;
67074;SDS011;53990;50.334;18.640;2022-11-15T03:00:35;75.20;;;32.70;;
67074;SDS011;53990;50.334;18.640;2022-11-15T03:03:19;72.40;;;34.00;;
67074;SDS011;53990;50.334;18.640;2022-11-15T03:05:58;77.80;;;34.90;;
67074;SDS011;53990;50.334;18.640;2022-11-15T03:08:32;70.20;;;33.40;;
67074;SDS011;53990;50.334;18.640;2022-11-15T03:11:13;70.70;;;34.30;;
67074;SDS011;53990;50.334;18.640;2022-11-15T03:13:57;71.80;;;34.30;;
67074;SDS011;53990;50.334;18.640;2022-11-15T03:19:14;70.40;;;34.20;;
67074;SDS011;53990;50.334;18.640;2022-11-15T03:21:44;75.20;;;34.80;;
67074;SDS011;53990;50.334;18.640;2022-11-15T03:24:12;78.00;;;35.30;;
67074;SDS011;53990;50.334;18.640;2022-11-15T03:26:42;71.50;;;35.20;;
67074;SDS011;53990;50.334;18.640;2022-11-15T03:29:17;84.80;;;37.00;;
67074;SDS011;53990;50.334;18.640;2022-11-15T03:31:51;84.00;;;38.50;;
67074;SDS011;53990;50.334;18.640;2022-11-15T03:36:52;82.90;;;38.10;;
67074;SDS011;53990;50.334;18.640;2022-11-15T03:39:20;84.50;;;39.00;;
67074;SDS011;53990;50.334;18.640;2022-11-15T03:42:02;82.70;;;36.40;;
67074;SDS011;53990;50.334;18.640;2022-11-15T03:50:39;80.00;;;35.90;;
67074;SDS011;53990;50.334;18.640;2022-11-15T03:53:07;74.20;;;33.80;;
67074;SDS011;53990;50.334;18.640;2022-11-15T03:55:35;79.90;;;35.10;;
67074;SDS011;53990;50.334;18.640;2022-11-15T03:58:02;76.00;;;33.80;;
67074;SDS011;53990;50.334;18.640;2022-11-15T04:00:29;68.50;;;33.90;;
67074;SDS011;53990;50.334;18.640;2022-11-15T04:02:56;69.40;;;32.90;;
67074;SDS011;53990;50.334;18.640;2022-11-15T04:05:24;70.40;;;32.50;;
67074;SDS011;53990;50.334;18.640;2022-11-15T04:07:51;70.40;;;33.50;;
67074;SDS011;53990;50.334;18.640;2022-11-15T04:10:18;69.80;;;32.30;;
67074;SDS011;53990;50.334;18.640;2022-11-15T04:12:46;72.60;;;33.90;;
67074;SDS011;53990;50.334;18.640;2022-11-15T04:15:20;65.50;;;31.40;;
67074;SDS011;53990;50.334;18.640;2022-11-15T04:17:56;64.40;;;30.70;;
67074;SDS011;53990;50.334;18.640;2022-11-15T04:20:26;64.70;;;32.60;;
67074;SDS011;53990;50.334;18.640;2022-11-15T04:23:30;69.80;;;33.00;;
67074;SDS011;53990;50.334;18.640;2022-11-15T04:26:21;78.40;;;32.10;;
67074;SDS011;53990;50.334;18.640;2022-11-15T04:28:49;74.70;;;34.80;;
67074;SDS011;53990;50.334;18.640;2022-11-15T04:31:35;99.50;;;35.00;;
67074;SDS011;53990;50.334;18.640;2022-11-15T04:34:03;76.70;;;32.90;;
67074;SDS011;53990;50.334;18.640;2022-11-15T04:36:30;70.80;;;32.80;;
67074;SDS011;53990;50.334;18.640;2022-11-15T04:39:16;73.60;;;33.60;;
67074;SDS011;53990;50.334;18.640;2022-11-15T04:41:43;83.50;;;33.30;;
67074;SDS011;53990;50.334;18.640;2022-11-15T04:44:10;70.30;;;33.50;;
67074;SDS011;53990;50.334;18.640;2022-11-15T04:46:37;84.80;;;37.70;;
67074;SDS011;53990;50.334;18.640;2022-11-15T04:49:05;70.70;;;35.40;;
67074;SDS011;53990;50.334;18.640;2022-11-15T04:51:32;72.00;;;34.60;;
67074;SDS011;53990;50.334;18.640;2022-11-15T04:53:59;75.20;;;34.00;;
67074;SDS011;53990;50.334;18.640;2022-11-15T04:56:26;73.50;;;33.70;;
67074;SDS011;53990;50.334;18.640;2022-11-15T04:58:54;69.50;;;35.10;;
67074;SDS011;53990;50.334;18.640;2022-11-15T05:01:21;69.20;;;34.10;;
67074;SDS011;53990;50.334;18.640;2022-11-15T05:03:48;63.40;;;32.60;;
67074;SDS011;53990;50.334;18.640;2022-11-15T05:06:34;65.50;;;33.60;;
67074;SDS011;53990;50.334;18.640;2022-11-15T05:09:02;62.00;;;30.70;;
67074;SDS011;53990;50.334;18.640;2022-11-15T05:11:29;63.00;;;31.80;;
67074;SDS011;53990;50.334;18.640;2022-11-15T05:13:56;71.20;;;33.20;;
67074;SDS011;53990;50.334;18.640;2022-11-15T05:16:24;64.30;;;32.30;;
67074;SDS011;53990;50.334;18.640;2022-11-15T05:18:52;66.00;;;33.50;;
67074;SDS011;53990;50.334;18.640;2022-11-15T05:21:20;64.60;;;33.80;;
67074;SDS011;53990;50.334;18.640;2022-11-15T05:23:47;58.10;;;31.70;;
67074;SDS011;53990;50.334;18.640;2022-11-15T05:26:16;60.40;;;30.40;;
67074;SDS011;53990;50.334;18.640;2022-11-15T05:28:44;63.90;;;30.30;;
67074;SDS011;53990;50.334;18.640;2022-11-15T05:31:14;62.80;;;32.90;;
67074;SDS011;53990;50.334;18.640;2022-11-15T05:33:43;60.90;;;32.00;;
67074;SDS011;53990;50.334;18.640;2022-11-15T05:38:53;56.60;;;31.20;;
67074;SDS011;53990;50.334;18.640;2022-11-15T05:41:24;60.10;;;31.00;;
67074;SDS011;53990;50.334;18.640;2022-11-15T05:43:56;60.00;;;31.10;;
67074;SDS011;53990;50.334;18.640;2022-11-15T05:46:23;61.00;;;32.20;;
67074;SDS011;53990;50.334;18.640;2022-11-15T05:48:52;63.40;;;30.70;;
67074;SDS011;53990;50.334;18.640;2022-11-15T05:51:21;55.10;;;31.40;;
67074;SDS011;53990;50.334;18.640;2022-11-15T05:53:49;55.00;;;30.80;;
67074;SDS011;53990;50.334;18.640;2022-11-15T05:56:17;58.10;;;30.20;;
67074;SDS011;53990;50.334;18.640;2022-11-15T05:58:44;56.70;;;31.00;;
67074;SDS011;53990;50.334;18.640;2022-11-15T06:01:12;59.50;;;32.00;;
67074;SDS011;53990;50.334;18.640;2022-11-15T06:03:39;61.90;;;31.80;;
67074;SDS011;53990;50.334;18.640;2022-11-15T06:06:09;59.20;;;32.20;;
67074;SDS011;53990;50.334;18.640;2022-11-15T06:08:37;53.10;;;30.70;;
67074;SDS011;53990;50.334;18.640;2022-11-15T06:11:05;61.20;;;32.40;;
67074;SDS011;53990;50.334;18.640;2022-11-15T06:13:33;63.70;;;33.10;;
67074;SDS011;53990;50.334;18.640;2022-11-15T06:16:01;56.50;;;32.30;;
67074;SDS011;53990;50.334;18.640;2022-11-15T06:18:32;61.80;;;32.30;;
67074;SDS011;53990;50.334;18.640;2022-11-15T06:21:00;58.40;;;31.90;;
67074;SDS011;53990;50.334;18.640;2022-11-15T06:23:33;60.90;;;31.60;;
67074;SDS011;53990;50.334;18.640;2022-11-15T06:26:01;61.50;;;32.50;;
67074;SDS011;53990;50.334;18.640;2022-11-15T06:28:32;57.50;;;32.00;;
67074;SDS011;53990;50.334;18.640;2022-11-15T06:31:05;54.90;;;31.40;;
67074;SDS011;53990;50.334;18.640;2022-11-15T06:33:32;56.40;;;32.20;;
67074;SDS011;53990;50.334;18.640;2022-11-15T06:36:04;55.90;;;32.00;;
67074;SDS011;53990;50.334;18.640;2022-11-15T06:38:32;61.00;;;33.00;;
67074;SDS011;53990;50.334;18.640;2022-11-15T06:41:03;64.70;;;34.60;;
67074;SDS011;53990;50.334;18.640;2022-11-15T06:43:33;57.90;;;32.10;;
67074;SDS011;53990;50.334;18.640;2022-11-15T06:46:02;61.30;;;35.00;;
67074;SDS011;53990;50.334;18.640;2022-11-15T06:48:30;59.40;;;32.00;;
67074;SDS011;53990;50.334;18.640;2022-11-15T06:50:59;63.70;;;34.10;;
67074;SDS011;53990;50.334;18.640;2022-11-15T06:53:27;61.00;;;35.00;;
67074;SDS011;53990;50.334;18.640;2022-11-15T06:55:59;64.00;;;34.10;;
67074;SDS011;53990;50.334;18.640;2022-11-15T06:58:27;64.60;;;34.50;;
67074;SDS011;53990;50.334;18.640;2022-11-15T07:01:03;64.50;;;33.70;;
67074;SDS011;53990;50.334;18.640;2022-11-15T07:03:31;61.00;;;34.10;;
67074;SDS011;53990;50.334;18.640;2022-11-15T07:05:59;58.00;;;32.80;;
67074;SDS011;53990;50.334;18.640;2022-11-15T07:08:27;65.80;;;34.70;;
67074;SDS011;53990;50.334;18.640;2022-11-15T07:11:04;58.20;;;32.20;;
67074;SDS011;53990;50.334;18.640;2022-11-15T07:13:32;62.20;;;33.10;;
67074;SDS011;53990;50.334;18.640;2022-11-15T07:16:08;61.30;;;34.60;;
67074;SDS011;53990;50.334;18.640;2022-11-15T07:18:38;61.30;;;35.30;;
67074;SDS011;53990;50.334;18.640;2022-11-15T07:21:07;56.60;;;32.90;;
67074;SDS011;53990;50.334;18.640;2022-11-15T07:23:36;56.00;;;32.30;;
67074;SDS011;53990;50.334;18.640;2022-11-15T07:26:05;65.60;;;37.00;;
67074;SDS011;53990;50.334;18.640;2022-11-15T07:28:33;63.50;;;37.40;;
67074;SDS011;53990;50.334;18.640;2022-11-15T07:31:03;68.90;;;38.10;;
67074;SDS011;53990;50.334;18.640;2022-11-15T07:33:30;66.80;;;36.30;;
67074;SDS011;53990;50.334;18.640;2022-11-15T07:36:01;67.20;;;38.60;;
67074;SDS011;53990;50.334;18.640;2022-11-15T07:38:30;65.60;;;39.20;;
67074;SDS011;53990;50.334;18.640;2022-11-15T07:41:00;70.50;;;38.30;;
67074;SDS011;53990;50.334;18.640;2022-11-15T07:43:28;67.20;;;40.70;;
67074;SDS011;53990;50.334;18.640;2022-11-15T07:45:56;65.60;;;39.80;;
67074;SDS011;53990;50.334;18.640;2022-11-15T07:48:24;69.80;;;40.30;;
67074;SDS011;53990;50.334;18.640;2022-11-15T07:50:51;70.90;;;40.90;;
67074;SDS011;53990;50.334;18.640;2022-11-15T07:53:18;61.30;;;38.20;;
67074;SDS011;53990;50.334;18.640;2022-11-15T07:55:45;65.20;;;40.20;;
67074;SDS011;53990;50.334;18.640;2022-11-15T07:58:13;68.90;;;41.40;;
67074;SDS011;53990;50.334;18.640;2022-11-15T08:00:40;71.90;;;42.70;;
67074;SDS011;53990;50.334;18.640;2022-11-15T08:03:10;66.20;;;41.10;;
67074;SDS011;53990;50.334;18.640;2022-11-15T08:05:43;70.70;;;42.90;;
67074;SDS011;53990;50.334;18.640;2022-11-15T08:08:16;69.70;;;40.60;;
67074;SDS011;53990;50.334;18.640;2022-11-15T08:10:43;66.90;;;41.10;;
67074;SDS011;53990;50.334;18.640;2022-11-15T08:13:12;63.50;;;40.30;;
67074;SDS011;53990;50.334;18.640;2022-11-15T08:15:40;64.20;;;39.70;;
67074;SDS011;53990;50.334;18.640;2022-11-15T08:18:13;63.00;;;39.60;;
67074;SDS011;53990;50.334;18.640;2022-11-15T08:20:41;66.70;;;39.30;;
67074;SDS011;53990;50.334;18.640;2022-11-15T08:23:10;54.60;;;35.60;;
67074;SDS011;53990;50.334;18.640;2022-11-15T08:25:38;57.00;;;37.10;;
67074;SDS011;53990;50.334;18.640;2022-11-15T08:28:07;60.50;;;36.80;;
67074;SDS011;53990;50.334;18.640;2022-11-15T08:30:39;63.90;;;38.90;;
67074;SDS011;53990;50.334;18.640;2022-11-15T08:33:13;53.40;;;35.80;;
67074;SDS011;53990;50.334;18.640;2022-11-15T08:35:41;57.60;;;35.40;;
67074;SDS011;53990;50.334;18.640;2022-11-15T08:38:09;50.60;;;34.00;;
67074;SDS011;53990;50.334;18.640;2022-11-15T08:40:37;54.40;;;35.40;;
67074;SDS011;53990;50.334;18.640;2022-11-15T08:43:04;54.80;;;36.50;;
67074;SDS011;53990;50.334;18.640;2022-11-15T08:45:34;49.60;;;34.50;;
67074;SDS011;53990;50.334;18.640;2022-11-15T08:48:03;53.00;;;35.70;;
67074;SDS011;53990;50.334;18.640;2022-11-15T08:50:30;55.90;;;34.30;;
67074;SDS011;53990;50.334;18.640;2022-11-15T08:53:04;57.60;;;34.00;;
67074;SDS011;53990;50.334;18.640;2022-11-15T08:55:31;51.10;;;33.30;;
67074;SDS011;53990;50.334;18.640;2022-11-15T08:57:58;50.70;;;31.70;;
67074;SDS011;53990;50.334;18.640;2022-11-15T09:00:25;52.60;;;35.10;;
67074;SDS011;53990;50.334;18.640;2022-11-15T09:02:53;56.10;;;34.40;;
67074;SDS011;53990;50.334;18.640;2022-11-15T09:05:20;50.90;;;33.50;;
67074;SDS011;53990;50.334;18.640;2022-11-15T09:07:52;55.90;;;34.20;;
67074;SDS011;53990;50.334;18.640;2022-11-15T09:10:21;51.70;;;34.10;;
67074;SDS011;53990;50.334;18.640;2022-11-15T09:12:48;54.60;;;34.40;;
67074;SDS011;53990;50.334;18.640;2022-11-15T09:15:16;51.00;;;31.90;;
67074;SDS011;53990;50.334;18.640;2022-11-15T09:17:43;51.00;;;32.80;;
67074;SDS011;53990;50.334;18.640;2022-11-15T09:20:10;53.30;;;32.80;;
67074;SDS011;53990;50.334;18.640;2022-11-15T09:22:38;46.90;;;32.90;;
67074;SDS011;53990;50.334;18.640;2022-11-15T09:25:06;48.00;;;31.50;;
67074;SDS011;53990;50.334;18.640;2022-11-15T09:27:34;46.20;;;31.40;;
67074;SDS011;53990;50.334;18.640;2022-11-15T09:30:01;44.50;;;30.10;;
67074;SDS011;53990;50.334;18.640;2022-11-15T09:32:29;49.40;;;31.20;;
67074;SDS011;53990;50.334;18.640;2022-11-15T09:34:57;44.80;;;29.90;;
67074;SDS011;53990;50.334;18.640;2022-11-15T09:37:24;46.70;;;32.30;;
67074;SDS011;53990;50.334;18.640;2022-11-15T09:39:51;44.80;;;30.50;;
67074;SDS011;53990;50.334;18.640;2022-11-15T09:47:54;43.40;;;29.80;;
67074;SDS011;53990;50.334;18.640;2022-11-15T09:50:34;42.30;;;28.90;;
67074;SDS011;53990;50.334;18.640;2022-11-15T09:53:04;42.30;;;28.20;;
67074;SDS011;53990;50.334;18.640;2022-11-15T09:55:42;39.00;;;28.50;;
67074;SDS011;53990;50.334;18.640;2022-11-15T10:01:14;40.80;;;27.70;;
67074;SDS011;53990;50.334;18.640;2022-11-15T10:03:44;40.10;;;27.90;;
67074;SDS011;53990;50.334;18.640;2022-11-15T10:06:23;43.50;;;28.90;;
67074;SDS011;53990;50.334;18.640;2022-11-15T10:11:56;40.30;;;26.50;;
67074;SDS011;53990;50.334;18.640;2022-11-15T10:14:25;41.20;;;27.20;;
67074;SDS011;53990;50.334;18.640;2022-11-15T10:22:38;40.10;;;26.80;;
67074;SDS011;53990;50.334;18.640;2022-11-15T10:27:36;39.20;;;27.10;;
67074;SDS011;53990;50.334;18.640;2022-11-15T10:30:06;37.90;;;27.20;;
67074;SDS011;53990;50.334;18.640;2022-11-15T10:32:39;36.30;;;26.10;;
67074;SDS011;53990;50.334;18.640;2022-11-15T10:35:19;34.20;;;26.30;;
67074;SDS011;53990;50.334;18.640;2022-11-15T10:37:47;32.80;;;24.80;;
67074;SDS011;53990;50.334;18.640;2022-11-15T10:40:22;32.90;;;23.70;;
67074;SDS011;53990;50.334;18.640;2022-11-15T10:43:23;30.60;;;23.50;;
67074;SDS011;53990;50.334;18.640;2022-11-15T10:45:53;31.00;;;24.50;;
67074;SDS011;53990;50.334;18.640;2022-11-15T10:48:22;32.40;;;23.40;;
67074;SDS011;53990;50.334;18.640;2022-11-15T10:50:51;30.00;;;23.40;;
67074;SDS011;53990;50.334;18.640;2022-11-15T10:53:23;31.90;;;23.80;;
67074;SDS011;53990;50.334;18.640;2022-11-15T10:55:55;29.90;;;22.90;;
67074;SDS011;53990;50.334;18.640;2022-11-15T10:58:34;31.80;;;23.70;;
67074;SDS011;53990;50.334;18.640;2022-11-15T11:01:29;31.10;;;22.20;;
67074;SDS011;53990;50.334;18.640;2022-11-15T11:04:00;30.30;;;23.50;;
67074;SDS011;53990;50.334;18.640;2022-11-15T11:06:28;31.40;;;23.20;;
67074;SDS011;53990;50.334;18.640;2022-11-15T11:09:02;29.50;;;23.20;;
67074;SDS011;53990;50.334;18.640;2022-11-15T11:11:50;30.30;;;23.00;;
67074;SDS011;53990;50.334;18.640;2022-11-15T11:14:21;30.40;;;24.00;;
67074;SDS011;53990;50.334;18.640;2022-11-15T11:34:44;31.40;;;23.80;;
67074;SDS011;53990;50.334;18.640;2022-11-15T11:42:58;35.10;;;23.70;;
67074;SDS011;53990;50.334;18.640;2022-11-15T11:46:12;30.80;;;23.30;;
67074;SDS011;53990;50.334;18.640;2022-11-15T11:48:43;33.60;;;24.30;;
67074;SDS011;53990;50.334;18.640;2022-11-15T11:51:27;30.70;;;22.70;;
67074;SDS011;53990;50.334;18.640;2022-11-15T11:54:03;28.50;;;21.80;;
67074;SDS011;53990;50.334;18.640;2022-11-15T11:56:35;29.90;;;23.20;;
67074;SDS011;53990;50.334;18.640;2022-11-15T11:59:21;29.80;;;23.30;;
67074;SDS011;53990;50.334;18.640;2022-11-15T12:01:50;33.20;;;24.10;;
67074;SDS011;53990;50.334;18.640;2022-11-15T12:04:23;29.10;;;23.60;;
67074;SDS011;53990;50.334;18.640;2022-11-15T12:07:08;33.10;;;26.30;;
67074;SDS011;53990;50.334;18.640;2022-11-15T12:09:41;30.70;;;23.80;;
67074;SDS011;53990;50.334;18.640;2022-11-15T12:12:29;31.30;;;24.40;;
67074;SDS011;53990;50.334;18.640;2022-11-15T12:17:38;33.20;;;26.00;;
67074;SDS011;53990;50.334;18.640;2022-11-15T12:20:18;29.30;;;25.40;;
67074;SDS011;53990;50.334;18.640;2022-11-15T12:22:59;33.30;;;26.90;;
67074;SDS011;53990;50.334;18.640;2022-11-15T12:28:07;29.20;;;25.60;;
67074;SDS011;53990;50.334;18.640;2022-11-15T12:30:45;32.20;;;26.70;;
67074;SDS011;53990;50.334;18.640;2022-11-15T12:36:38;34.20;;;28.00;;
67074;SDS011;53990;50.334;18.640;2022-11-15T12:39:13;35.90;;;27.40;;
67074;SDS011;53990;50.334;18.640;2022-11-15T12:44:56;32.50;;;25.90;;
67074;SDS011;53990;50.334;18.640;2022-11-15T12:47:03;31.80;;;26.30;;
67074;SDS011;53990;50.334;18.640;2022-11-15T13:02:25;37.20;;;27.20;;
67074;SDS011;53990;50.334;18.640;2022-11-15T13:05:19;35.70;;;27.20;;
67074;SDS011;53990;50.334;18.640;2022-11-15T13:07:54;37.00;;;27.00;;
67074;SDS011;53990;50.334;18.640;2022-11-15T13:12:54;37.40;;;28.10;;
67074;SDS011;53990;50.334;18.640;2022-11-15T13:15:30;36.70;;;28.20;;
67074;SDS011;53990;50.334;18.640;2022-11-15T13:17:58;46.90;;;35.50;;
67074;SDS011;53990;50.334;18.640;2022-11-15T13:20:31;46.80;;;33.40;;
67074;SDS011;53990;50.334;18.640;2022-11-15T13:23:15;41.10;;;29.90;;
67074;SDS011;53990;50.334;18.640;2022-11-15T13:31:14;46.50;;;30.50;;
67074;SDS011;53990;50.334;18.640;2022-11-15T13:33:44;47.70;;;30.90;;
67074;SDS011;53990;50.334;18.640;2022-11-15T13:36:23;44.30;;;30.30;;
67074;SDS011;53990;50.334;18.640;2022-11-15T13:39:33;47.40;;;30.80;;
67074;SDS011;53990;50.334;18.640;2022-11-15T13:42:04;52.70;;;32.10;;
67074;SDS011;53990;50.334;18.640;2022-11-15T13:44:32;50.00;;;32.50;;
67074;SDS011;53990;50.334;18.640;2022-11-15T13:47:05;51.80;;;32.20;;
67074;SDS011;53990;50.334;18.640;2022-11-15T13:49:33;52.40;;;34.40;;
67074;SDS011;53990;50.334;18.640;2022-11-15T13:52:07;60.40;;;39.60;;
67074;SDS011;53990;50.334;18.640;2022-11-15T14:00:01;54.10;;;35.20;;
67074;SDS011;53990;50.334;18.640;2022-11-15T14:02:34;53.60;;;34.00;;
67074;SDS011;53990;50.334;18.640;2022-11-15T14:05:16;53.80;;;35.10;;
67074;SDS011;53990;50.334;18.640;2022-11-15T14:10:35;55.80;;;35.40;;
67074;SDS011;53990;50.334;18.640;2022-11-15T14:13:04;60.90;;;38.30;;
67074;SDS011;53990;50.334;18.640;2022-11-15T14:15:38;60.60;;;36.50;;
67074;SDS011;53990;50.334;18.640;2022-11-15T14:18:06;56.20;;;34.70;;
67074;SDS011;53990;50.334;18.640;2022-11-15T14:20:36;55.60;;;34.70;;
67074;SDS011;53990;50.334;18.640;2022-11-15T14:23:27;59.70;;;37.60;;
67074;SDS011;53990;50.334;18.640;2022-11-15T14:25:58;61.80;;;38.10;;
67074;SDS011;53990;50.334;18.640;2022-11-15T14:30:56;59.40;;;37.20;;
67074;SDS011;53990;50.334;18.640;2022-11-15T14:35:57;58.60;;;36.30;;
67074;SDS011;53990;50.334;18.640;2022-11-15T14:38:27;58.00;;;35.80;;
67074;SDS011;53990;50.334;18.640;2022-11-15T14:40:55;53.70;;;34.20;;
67074;SDS011;53990;50.334;18.640;2022-11-15T14:43:24;56.60;;;35.00;;
67074;SDS011;53990;50.334;18.640;2022-11-15T14:45:51;58.30;;;35.50;;
67074;SDS011;53990;50.334;18.640;2022-11-15T14:48:18;56.10;;;35.40;;
67074;SDS011;53990;50.334;18.640;2022-11-15T14:50:45;64.00;;;38.50;;
67074;SDS011;53990;50.334;18.640;2022-11-15T14:53:17;58.40;;;35.60;;
67074;SDS011;53990;50.334;18.640;2022-11-15T14:55:44;60.40;;;36.10;;
67074;SDS011;53990;50.334;18.640;2022-11-15T14:58:12;62.40;;;36.50;;
67074;SDS011;53990;50.334;18.640;2022-11-15T15:00:40;64.70;;;37.80;;
67074;SDS011;53990;50.334;18.640;2022-11-15T15:03:08;62.90;;;38.20;;
67074;SDS011;53990;50.334;18.640;2022-11-15T15:05:41;63.40;;;36.90;;
67074;SDS011;53990;50.334;18.640;2022-11-15T15:08:09;62.30;;;36.70;;
67074;SDS011;53990;50.334;18.640;2022-11-15T15:10:40;58.40;;;36.40;;
67074;SDS011;53990;50.334;18.640;2022-11-15T15:13:20;59.70;;;35.90;;
67074;SDS011;53990;50.334;18.640;2022-11-15T15:15:49;56.40;;;35.70;;
67074;SDS011;53990;50.334;18.640;2022-11-15T15:18:17;56.40;;;35.10;;
67074;SDS011;53990;50.334;18.640;2022-11-15T15:20:49;57.40;;;33.70;;
67074;SDS011;53990;50.334;18.640;2022-11-15T15:23:20;57.40;;;34.50;;
67074;SDS011;53990;50.334;18.640;2022-11-15T15:25:47;61.40;;;35.50;;
67074;SDS011;53990;50.334;18.640;2022-11-15T15:28:16;68.50;;;39.20;;
67074;SDS011;53990;50.334;18.640;2022-11-15T15:30:43;63.30;;;38.70;;
67074;SDS011;53990;50.334;18.640;2022-11-15T15:33:10;69.40;;;38.00;;
67074;SDS011;53990;50.334;18.640;2022-11-15T15:35:37;65.80;;;38.50;;
67074;SDS011;53990;50.334;18.640;2022-11-15T15:38:05;76.30;;;39.60;;
67074;SDS011;53990;50.334;18.640;2022-11-15T15:40:32;63.00;;;35.40;;
67074;SDS011;53990;50.334;18.640;2022-11-15T15:43:00;68.00;;;38.00;;
67074;SDS011;53990;50.334;18.640;2022-11-15T15:45:27;72.30;;;37.00;;
67074;SDS011;53990;50.334;18.640;2022-11-15T15:47:56;65.30;;;36.80;;
67074;SDS011;53990;50.334;18.640;2022-11-15T15:50:26;62.00;;;37.20;;
67074;SDS011;53990;50.334;18.640;2022-11-15T15:52:56;62.00;;;38.10;;
67074;SDS011;53990;50.334;18.640;2022-11-15T15:55:25;64.60;;;37.00;;
67074;SDS011;53990;50.334;18.640;2022-11-15T15:57:53;64.20;;;37.90;;
67074;SDS011;53990;50.334;18.640;2022-11-15T16:00:22;66.10;;;39.70;;
67074;SDS011;53990;50.334;18.640;2022-11-15T16:02:52;64.30;;;37.20;;
67074;SDS011;53990;50.334;18.640;2022-11-15T16:05:20;60.30;;;35.80;;
67074;SDS011;53990;50.334;18.640;2022-11-15T16:07:48;62.60;;;37.00;;
67074;SDS011;53990;50.334;18.640;2022-11-15T16:10:30;61.10;;;35.30;;
67074;SDS011;53990;50.334;18.640;2022-11-15T16:12:58;60.90;;;38.30;;
67074;SDS011;53990;50.334;18.640;2022-11-15T16:15:27;66.50;;;37.50;;
67074;SDS011;53990;50.334;18.640;2022-11-15T16:17:58;73.40;;;42.00;;
67074;SDS011;53990;50.334;18.640;2022-11-15T16:20:33;66.30;;;39.50;;
67074;SDS011;53990;50.334;18.640;2022-11-15T16:23:02;69.30;;;39.50;;
67074;SDS011;53990;50.334;18.640;2022-11-15T16:25:51;64.70;;;39.20;;
67074;SDS011;53990;50.334;18.640;2022-11-15T16:28:24;69.40;;;40.90;;
67074;SDS011;53990;50.334;18.640;2022-11-15T16:31:07;72.80;;;43.40;;
67074;SDS011;53990;50.334;18.640;2022-11-15T16:33:35;75.90;;;44.90;;
67074;SDS011;53990;50.334;18.640;2022-11-15T16:36:05;71.30;;;42.90;;